sensor_id;sensor_type;location;lat;lon;timestamp;P1;durP1;ratioP1;P2;durP2;ratioP2
76597;SDS011;65486;53.144;18.134;2023-07-20T00:01:24;7.90;;;5.30;;
76597;SDS011;65486;53.144;18.134;2023-07-20T00:03:51;8.20;;;5.20;;
76597;SDS011;65486;53.144;18.134;2023-07-20T00:06:26;9.30;;;6.40;;
76597;SDS011;65486;53.144;18.134;2023-07-20T00:09:20;7.40;;;5.70;;
76597;SDS011;65486;53.144;18.134;2023-07-20T00:11:48;7.50;;;5.40;;
76597;SDS011;65486;53.144;18.134;2023-07-20T00:14:17;8.10;;;5.50;;
76597;SDS011;65486;53.144;18.134;2023-07-20T00:16:47;9.40;;;5.90;;
76597;SDS011;65486;53.144;18.134;2023-07-20T00:19:23;7.90;;;5.80;;
76597;SDS011;65486;53.144;18.134;2023-07-20T00:21:54;7.20;;;4.90;;
76597;SDS011;65486;53.144;18.134;2023-07-20T00:24:21;6.40;;;4.20;;
76597;SDS011;65486;53.144;18.134;2023-07-20T00:26:50;7.00;;;5.30;;
76597;SDS011;65486;53.144;18.134;2023-07-20T00:29:17;9.80;;;6.00;;
76597;SDS011;65486;53.144;18.134;2023-07-20T00:31:45;9.80;;;6.70;;
76597;SDS011;65486;53.144;18.134;2023-07-20T00:34:13;9.30;;;5.80;;
76597;SDS011;65486;53.144;18.134;2023-07-20T00:36:42;8.50;;;5.20;;
76597;SDS011;65486;53.144;18.134;2023-07-20T00:39:10;9.40;;;5.70;;
76597;SDS011;65486;53.144;18.134;2023-07-20T00:41:37;9.30;;;5.80;;
76597;SDS011;65486;53.144;18.134;2023-07-20T00:44:05;8.00;;;6.20;;
76597;SDS011;65486;53.144;18.134;2023-07-20T00:46:32;7.50;;;6.10;;
76597;SDS011;65486;53.144;18.134;2023-07-20T00:49:01;8.40;;;5.60;;
76597;SDS011;65486;53.144;18.134;2023-07-20T00:51:29;12.00;;;6.80;;
76597;SDS011;65486;53.144;18.134;2023-07-20T00:53:57;10.60;;;7.20;;
76597;SDS011;65486;53.144;18.134;2023-07-20T00:56:24;8.90;;;6.10;;
76597;SDS011;65486;53.144;18.134;2023-07-20T00:58:52;7.80;;;5.80;;
76597;SDS011;65486;53.144;18.134;2023-07-20T01:01:21;7.10;;;4.90;;
76597;SDS011;65486;53.144;18.134;2023-07-20T01:03:50;7.40;;;5.10;;
76597;SDS011;65486;53.144;18.134;2023-07-20T01:09:33;8.30;;;5.70;;
76597;SDS011;65486;53.144;18.134;2023-07-20T01:12:09;7.50;;;5.60;;
76597;SDS011;65486;53.144;18.134;2023-07-20T01:14:40;10.90;;;5.80;;
76597;SDS011;65486;53.144;18.134;2023-07-20T01:17:09;8.40;;;5.90;;
76597;SDS011;65486;53.144;18.134;2023-07-20T01:19:42;7.50;;;5.50;;
76597;SDS011;65486;53.144;18.134;2023-07-20T01:22:21;8.80;;;6.00;;
76597;SDS011;65486;53.144;18.134;2023-07-20T01:24:58;8.20;;;5.90;;
76597;SDS011;65486;53.144;18.134;2023-07-20T01:30:39;6.60;;;5.20;;
76597;SDS011;65486;53.144;18.134;2023-07-20T01:33:26;7.50;;;5.40;;
76597;SDS011;65486;53.144;18.134;2023-07-20T01:35:56;5.60;;;4.70;;
76597;SDS011;65486;53.144;18.134;2023-07-20T01:38:26;8.30;;;4.90;;
76597;SDS011;65486;53.144;18.134;2023-07-20T01:40:55;8.80;;;5.10;;
76597;SDS011;65486;53.144;18.134;2023-07-20T01:43:22;8.10;;;5.50;;
76597;SDS011;65486;53.144;18.134;2023-07-20T01:45:56;7.90;;;5.20;;
76597;SDS011;65486;53.144;18.134;2023-07-20T01:48:26;8.80;;;5.10;;
76597;SDS011;65486;53.144;18.134;2023-07-20T01:50:53;7.70;;;4.50;;
76597;SDS011;65486;53.144;18.134;2023-07-20T01:53:20;8.20;;;5.80;;
76597;SDS011;65486;53.144;18.134;2023-07-20T01:55:54;8.40;;;5.30;;
76597;SDS011;65486;53.144;18.134;2023-07-20T01:58:21;8.20;;;5.60;;
76597;SDS011;65486;53.144;18.134;2023-07-20T02:00:52;7.30;;;5.50;;
76597;SDS011;65486;53.144;18.134;2023-07-20T02:03:20;7.80;;;5.10;;
76597;SDS011;65486;53.144;18.134;2023-07-20T02:05:48;8.10;;;6.10;;
76597;SDS011;65486;53.144;18.134;2023-07-20T02:08:15;8.50;;;5.60;;
76597;SDS011;65486;53.144;18.134;2023-07-20T02:10:44;8.20;;;5.90;;
76597;SDS011;65486;53.144;18.134;2023-07-20T02:13:14;7.80;;;5.10;;
76597;SDS011;65486;53.144;18.134;2023-07-20T02:15:41;7.60;;;5.40;;
76597;SDS011;65486;53.144;18.134;2023-07-20T02:18:09;9.50;;;5.70;;
76597;SDS011;65486;53.144;18.134;2023-07-20T02:20:40;8.00;;;5.50;;
76597;SDS011;65486;53.144;18.134;2023-07-20T02:23:09;9.40;;;6.50;;
76597;SDS011;65486;53.144;18.134;2023-07-20T02:25:36;9.60;;;6.10;;
76597;SDS011;65486;53.144;18.134;2023-07-20T02:28:06;10.50;;;6.50;;
76597;SDS011;65486;53.144;18.134;2023-07-20T02:30:42;8.60;;;6.60;;
76597;SDS011;65486;53.144;18.134;2023-07-20T02:33:10;9.00;;;6.40;;
76597;SDS011;65486;53.144;18.134;2023-07-20T02:35:39;10.70;;;7.00;;
76597;SDS011;65486;53.144;18.134;2023-07-20T02:38:06;10.80;;;7.00;;
76597;SDS011;65486;53.144;18.134;2023-07-20T02:40:34;8.60;;;6.50;;
76597;SDS011;65486;53.144;18.134;2023-07-20T02:43:07;8.70;;;6.90;;
76597;SDS011;65486;53.144;18.134;2023-07-20T02:45:39;9.80;;;7.10;;
76597;SDS011;65486;53.144;18.134;2023-07-20T02:48:07;11.70;;;8.50;;
76597;SDS011;65486;53.144;18.134;2023-07-20T02:50:36;12.00;;;8.80;;
76597;SDS011;65486;53.144;18.134;2023-07-20T02:53:05;11.50;;;8.80;;
76597;SDS011;65486;53.144;18.134;2023-07-20T02:55:32;9.60;;;7.40;;
76597;SDS011;65486;53.144;18.134;2023-07-20T02:57:59;9.50;;;6.50;;
76597;SDS011;65486;53.144;18.134;2023-07-20T03:00:26;10.80;;;6.80;;
76597;SDS011;65486;53.144;18.134;2023-07-20T03:02:56;8.40;;;5.70;;
76597;SDS011;65486;53.144;18.134;2023-07-20T03:05:23;8.60;;;5.30;;
76597;SDS011;65486;53.144;18.134;2023-07-20T03:07:57;10.60;;;6.30;;
76597;SDS011;65486;53.144;18.134;2023-07-20T03:10:29;7.20;;;4.80;;
76597;SDS011;65486;53.144;18.134;2023-07-20T03:12:58;7.30;;;4.60;;
76597;SDS011;65486;53.144;18.134;2023-07-20T03:15:25;5.90;;;4.00;;
76597;SDS011;65486;53.144;18.134;2023-07-20T03:17:53;6.40;;;4.10;;
76597;SDS011;65486;53.144;18.134;2023-07-20T03:20:20;6.00;;;3.80;;
76597;SDS011;65486;53.144;18.134;2023-07-20T03:22:48;7.40;;;4.40;;
76597;SDS011;65486;53.144;18.134;2023-07-20T03:25:16;7.60;;;3.60;;
76597;SDS011;65486;53.144;18.134;2023-07-20T03:27:44;4.80;;;3.30;;
76597;SDS011;65486;53.144;18.134;2023-07-20T03:30:11;5.00;;;2.70;;
76597;SDS011;65486;53.144;18.134;2023-07-20T03:32:40;5.20;;;3.50;;
76597;SDS011;65486;53.144;18.134;2023-07-20T03:35:07;5.90;;;3.20;;
76597;SDS011;65486;53.144;18.134;2023-07-20T03:37:37;4.90;;;3.40;;
76597;SDS011;65486;53.144;18.134;2023-07-20T03:40:06;4.40;;;3.20;;
76597;SDS011;65486;53.144;18.134;2023-07-20T03:42:34;4.20;;;2.40;;
76597;SDS011;65486;53.144;18.134;2023-07-20T03:45:02;5.00;;;2.80;;
76597;SDS011;65486;53.144;18.134;2023-07-20T03:47:31;7.90;;;3.50;;
76597;SDS011;65486;53.144;18.134;2023-07-20T03:50:02;3.60;;;3.00;;
76597;SDS011;65486;53.144;18.134;2023-07-20T03:52:32;4.50;;;3.30;;
76597;SDS011;65486;53.144;18.134;2023-07-20T03:54:59;4.40;;;2.60;;
76597;SDS011;65486;53.144;18.134;2023-07-20T03:57:26;5.60;;;3.00;;
76597;SDS011;65486;53.144;18.134;2023-07-20T03:59:55;3.60;;;2.20;;
76597;SDS011;65486;53.144;18.134;2023-07-20T04:02:25;5.60;;;3.00;;
76597;SDS011;65486;53.144;18.134;2023-07-20T04:04:52;4.40;;;2.50;;
76597;SDS011;65486;53.144;18.134;2023-07-20T04:07:20;4.00;;;2.50;;
76597;SDS011;65486;53.144;18.134;2023-07-20T04:09:47;4.70;;;2.50;;
76597;SDS011;65486;53.144;18.134;2023-07-20T04:12:14;5.70;;;3.30;;
76597;SDS011;65486;53.144;18.134;2023-07-20T04:14:43;6.10;;;2.60;;
76597;SDS011;65486;53.144;18.134;2023-07-20T04:17:13;4.80;;;2.60;;
76597;SDS011;65486;53.144;18.134;2023-07-20T04:19:42;4.90;;;2.60;;
76597;SDS011;65486;53.144;18.134;2023-07-20T04:22:10;8.00;;;3.50;;
76597;SDS011;65486;53.144;18.134;2023-07-20T04:24:37;5.90;;;2.90;;
76597;SDS011;65486;53.144;18.134;2023-07-20T04:27:04;4.90;;;3.70;;
76597;SDS011;65486;53.144;18.134;2023-07-20T04:29:34;6.80;;;4.20;;
76597;SDS011;65486;53.144;18.134;2023-07-20T04:32:01;6.30;;;3.90;;
76597;SDS011;65486;53.144;18.134;2023-07-20T04:34:29;4.70;;;2.90;;
76597;SDS011;65486;53.144;18.134;2023-07-20T04:36:56;5.50;;;3.50;;
76597;SDS011;65486;53.144;18.134;2023-07-20T04:39:25;4.70;;;3.30;;
76597;SDS011;65486;53.144;18.134;2023-07-20T04:41:54;6.20;;;3.60;;
76597;SDS011;65486;53.144;18.134;2023-07-20T04:44:21;5.60;;;2.90;;
76597;SDS011;65486;53.144;18.134;2023-07-20T04:46:50;9.30;;;2.90;;
76597;SDS011;65486;53.144;18.134;2023-07-20T04:49:21;6.00;;;3.00;;
76597;SDS011;65486;53.144;18.134;2023-07-20T04:51:52;5.20;;;3.30;;
76597;SDS011;65486;53.144;18.134;2023-07-20T04:54:19;7.20;;;3.60;;
76597;SDS011;65486;53.144;18.134;2023-07-20T04:56:47;5.20;;;3.00;;
76597;SDS011;65486;53.144;18.134;2023-07-20T04:59:14;4.90;;;2.90;;
76597;SDS011;65486;53.144;18.134;2023-07-20T05:01:41;5.10;;;3.00;;
76597;SDS011;65486;53.144;18.134;2023-07-20T05:04:08;5.20;;;2.80;;
76597;SDS011;65486;53.144;18.134;2023-07-20T05:06:38;3.70;;;2.40;;
76597;SDS011;65486;53.144;18.134;2023-07-20T05:09:05;3.80;;;2.20;;
76597;SDS011;65486;53.144;18.134;2023-07-20T05:11:39;4.00;;;2.60;;
76597;SDS011;65486;53.144;18.134;2023-07-20T05:14:08;4.90;;;2.30;;
76597;SDS011;65486;53.144;18.134;2023-07-20T05:16:37;4.40;;;2.20;;
76597;SDS011;65486;53.144;18.134;2023-07-20T05:19:05;5.80;;;2.40;;
76597;SDS011;65486;53.144;18.134;2023-07-20T05:21:34;4.50;;;2.10;;
76597;SDS011;65486;53.144;18.134;2023-07-20T05:24:01;2.60;;;1.70;;
76597;SDS011;65486;53.144;18.134;2023-07-20T05:26:28;4.40;;;2.00;;
76597;SDS011;65486;53.144;18.134;2023-07-20T05:28:55;4.10;;;2.30;;
76597;SDS011;65486;53.144;18.134;2023-07-20T05:31:22;4.40;;;2.40;;
76597;SDS011;65486;53.144;18.134;2023-07-20T05:33:49;3.90;;;2.10;;
76597;SDS011;65486;53.144;18.134;2023-07-20T05:36:16;3.70;;;2.10;;
76597;SDS011;65486;53.144;18.134;2023-07-20T05:38:44;3.20;;;1.60;;
76597;SDS011;65486;53.144;18.134;2023-07-20T05:41:11;4.10;;;2.10;;
76597;SDS011;65486;53.144;18.134;2023-07-20T05:43:45;2.70;;;1.90;;
76597;SDS011;65486;53.144;18.134;2023-07-20T05:46:12;3.90;;;1.80;;
76597;SDS011;65486;53.144;18.134;2023-07-20T05:48:43;3.80;;;1.40;;
76597;SDS011;65486;53.144;18.134;2023-07-20T05:51:10;5.30;;;1.70;;
76597;SDS011;65486;53.144;18.134;2023-07-20T05:53:37;3.20;;;1.90;;
76597;SDS011;65486;53.144;18.134;2023-07-20T05:56:13;4.00;;;1.30;;
76597;SDS011;65486;53.144;18.134;2023-07-20T05:58:41;3.00;;;1.50;;
76597;SDS011;65486;53.144;18.134;2023-07-20T06:01:09;3.50;;;2.10;;
76597;SDS011;65486;53.144;18.134;2023-07-20T06:03:37;3.20;;;2.10;;
76597;SDS011;65486;53.144;18.134;2023-07-20T06:06:04;4.40;;;2.10;;
76597;SDS011;65486;53.144;18.134;2023-07-20T06:08:32;5.00;;;1.80;;
76597;SDS011;65486;53.144;18.134;2023-07-20T06:10:59;2.60;;;1.70;;
76597;SDS011;65486;53.144;18.134;2023-07-20T06:13:27;4.10;;;1.40;;
76597;SDS011;65486;53.144;18.134;2023-07-20T06:15:55;2.20;;;1.10;;
76597;SDS011;65486;53.144;18.134;2023-07-20T06:18:23;2.70;;;1.50;;
76597;SDS011;65486;53.144;18.134;2023-07-20T06:20:51;3.80;;;1.60;;
76597;SDS011;65486;53.144;18.134;2023-07-20T06:23:18;2.00;;;1.00;;
76597;SDS011;65486;53.144;18.134;2023-07-20T06:25:46;3.10;;;1.30;;
76597;SDS011;65486;53.144;18.134;2023-07-20T06:28:15;4.50;;;1.00;;
76597;SDS011;65486;53.144;18.134;2023-07-20T06:30:42;3.40;;;1.40;;
76597;SDS011;65486;53.144;18.134;2023-07-20T06:33:09;3.10;;;1.90;;
76597;SDS011;65486;53.144;18.134;2023-07-20T06:35:37;2.50;;;1.30;;
76597;SDS011;65486;53.144;18.134;2023-07-20T06:38:04;2.00;;;1.40;;
76597;SDS011;65486;53.144;18.134;2023-07-20T06:40:31;3.60;;;2.10;;
76597;SDS011;65486;53.144;18.134;2023-07-20T06:42:58;1.90;;;1.10;;
76597;SDS011;65486;53.144;18.134;2023-07-20T06:45:25;6.90;;;1.80;;
76597;SDS011;65486;53.144;18.134;2023-07-20T06:47:52;3.80;;;1.40;;
76597;SDS011;65486;53.144;18.134;2023-07-20T06:50:23;3.60;;;1.60;;
76597;SDS011;65486;53.144;18.134;2023-07-20T06:52:55;3.90;;;1.30;;
76597;SDS011;65486;53.144;18.134;2023-07-20T06:55:23;6.10;;;2.40;;
76597;SDS011;65486;53.144;18.134;2023-07-20T06:57:53;3.60;;;2.10;;
76597;SDS011;65486;53.144;18.134;2023-07-20T07:00:21;3.20;;;2.00;;
76597;SDS011;65486;53.144;18.134;2023-07-20T07:02:48;3.90;;;1.20;;
76597;SDS011;65486;53.144;18.134;2023-07-20T07:05:15;3.30;;;2.50;;
76597;SDS011;65486;53.144;18.134;2023-07-20T07:07:44;5.30;;;2.40;;
76597;SDS011;65486;53.144;18.134;2023-07-20T07:10:11;4.80;;;1.70;;
76597;SDS011;65486;53.144;18.134;2023-07-20T07:12:39;2.90;;;1.80;;
76597;SDS011;65486;53.144;18.134;2023-07-20T07:15:07;2.90;;;1.50;;
76597;SDS011;65486;53.144;18.134;2023-07-20T07:17:34;3.00;;;1.20;;
76597;SDS011;65486;53.144;18.134;2023-07-20T07:20:01;6.80;;;1.40;;
76597;SDS011;65486;53.144;18.134;2023-07-20T07:22:30;5.50;;;1.70;;
76597;SDS011;65486;53.144;18.134;2023-07-20T07:24:59;3.40;;;1.30;;
76597;SDS011;65486;53.144;18.134;2023-07-20T07:27:29;3.80;;;1.20;;
76597;SDS011;65486;53.144;18.134;2023-07-20T07:30:05;5.40;;;1.50;;
76597;SDS011;65486;53.144;18.134;2023-07-20T07:32:35;4.60;;;1.30;;
76597;SDS011;65486;53.144;18.134;2023-07-20T07:35:03;5.60;;;1.90;;
76597;SDS011;65486;53.144;18.134;2023-07-20T07:37:32;4.10;;;1.10;;
76597;SDS011;65486;53.144;18.134;2023-07-20T07:40:00;3.10;;;1.50;;
76597;SDS011;65486;53.144;18.134;2023-07-20T07:42:28;4.50;;;1.40;;
76597;SDS011;65486;53.144;18.134;2023-07-20T07:44:56;5.80;;;1.80;;
76597;SDS011;65486;53.144;18.134;2023-07-20T07:47:23;3.00;;;1.60;;
76597;SDS011;65486;53.144;18.134;2023-07-20T07:49:51;2.40;;;1.30;;
76597;SDS011;65486;53.144;18.134;2023-07-20T07:52:18;1.80;;;1.10;;
76597;SDS011;65486;53.144;18.134;2023-07-20T07:54:45;2.40;;;1.10;;
76597;SDS011;65486;53.144;18.134;2023-07-20T07:57:12;2.10;;;1.00;;
76597;SDS011;65486;53.144;18.134;2023-07-20T07:59:43;3.50;;;0.90;;
76597;SDS011;65486;53.144;18.134;2023-07-20T08:02:11;2.90;;;0.70;;
76597;SDS011;65486;53.144;18.134;2023-07-20T08:04:40;4.30;;;0.90;;
76597;SDS011;65486;53.144;18.134;2023-07-20T08:07:07;2.80;;;0.80;;
76597;SDS011;65486;53.144;18.134;2023-07-20T08:09:34;2.10;;;0.90;;
76597;SDS011;65486;53.144;18.134;2023-07-20T08:12:01;2.80;;;1.30;;
76597;SDS011;65486;53.144;18.134;2023-07-20T08:14:30;2.60;;;1.30;;
76597;SDS011;65486;53.144;18.134;2023-07-20T08:17:00;4.50;;;0.90;;
76597;SDS011;65486;53.144;18.134;2023-07-20T08:19:30;2.50;;;1.10;;
76597;SDS011;65486;53.144;18.134;2023-07-20T08:21:57;3.40;;;1.60;;
76597;SDS011;65486;53.144;18.134;2023-07-20T08:24:24;3.10;;;1.20;;
76597;SDS011;65486;53.144;18.134;2023-07-20T08:26:52;2.40;;;0.90;;
76597;SDS011;65486;53.144;18.134;2023-07-20T08:29:19;1.40;;;0.70;;
76597;SDS011;65486;53.144;18.134;2023-07-20T08:31:47;2.10;;;0.70;;
76597;SDS011;65486;53.144;18.134;2023-07-20T08:34:16;1.10;;;0.50;;
76597;SDS011;65486;53.144;18.134;2023-07-20T08:36:43;1.00;;;0.40;;
76597;SDS011;65486;53.144;18.134;2023-07-20T08:39:10;1.50;;;0.60;;
76597;SDS011;65486;53.144;18.134;2023-07-20T08:41:42;3.90;;;0.70;;
76597;SDS011;65486;53.144;18.134;2023-07-20T08:44:12;2.20;;;0.50;;
76597;SDS011;65486;53.144;18.134;2023-07-20T08:46:42;4.40;;;0.80;;
76597;SDS011;65486;53.144;18.134;2023-07-20T08:49:12;2.10;;;0.80;;
76597;SDS011;65486;53.144;18.134;2023-07-20T08:51:40;1.40;;;0.80;;
76597;SDS011;65486;53.144;18.134;2023-07-20T08:54:09;1.30;;;0.60;;
76597;SDS011;65486;53.144;18.134;2023-07-20T08:56:46;2.00;;;0.90;;
76597;SDS011;65486;53.144;18.134;2023-07-20T08:59:15;1.90;;;1.00;;
76597;SDS011;65486;53.144;18.134;2023-07-20T09:01:55;1.60;;;0.70;;
76597;SDS011;65486;53.144;18.134;2023-07-20T09:04:24;3.00;;;0.90;;
76597;SDS011;65486;53.144;18.134;2023-07-20T09:06:52;1.60;;;0.50;;
76597;SDS011;65486;53.144;18.134;2023-07-20T09:09:19;4.70;;;1.30;;
76597;SDS011;65486;53.144;18.134;2023-07-20T09:11:51;10.70;;;1.00;;
76597;SDS011;65486;53.144;18.134;2023-07-20T09:14:19;1.50;;;0.90;;
76597;SDS011;65486;53.144;18.134;2023-07-20T09:19:22;2.50;;;0.80;;
76597;SDS011;65486;53.144;18.134;2023-07-20T09:21:49;2.80;;;0.90;;
76597;SDS011;65486;53.144;18.134;2023-07-20T09:24:18;2.20;;;0.80;;
76597;SDS011;65486;53.144;18.134;2023-07-20T09:26:48;1.60;;;0.70;;
76597;SDS011;65486;53.144;18.134;2023-07-20T09:29:19;3.60;;;0.70;;
76597;SDS011;65486;53.144;18.134;2023-07-20T09:32:04;1.10;;;0.50;;
76597;SDS011;65486;53.144;18.134;2023-07-20T09:34:32;2.10;;;0.90;;
76597;SDS011;65486;53.144;18.134;2023-07-20T09:36:59;1.00;;;0.70;;
76597;SDS011;65486;53.144;18.134;2023-07-20T09:39:28;1.50;;;0.60;;
76597;SDS011;65486;53.144;18.134;2023-07-20T09:41:59;1.40;;;0.70;;
76597;SDS011;65486;53.144;18.134;2023-07-20T09:44:39;1.10;;;0.70;;
76597;SDS011;65486;53.144;18.134;2023-07-20T09:47:09;1.90;;;0.60;;
76597;SDS011;65486;53.144;18.134;2023-07-20T09:49:42;2.50;;;0.90;;
76597;SDS011;65486;53.144;18.134;2023-07-20T09:52:11;1.60;;;0.80;;
76597;SDS011;65486;53.144;18.134;2023-07-20T09:54:40;2.70;;;0.70;;
76597;SDS011;65486;53.144;18.134;2023-07-20T09:57:07;1.00;;;0.60;;
76597;SDS011;65486;53.144;18.134;2023-07-20T09:59:37;1.40;;;0.90;;
76597;SDS011;65486;53.144;18.134;2023-07-20T10:02:08;1.00;;;0.50;;
76597;SDS011;65486;53.144;18.134;2023-07-20T10:04:52;2.00;;;0.70;;
76597;SDS011;65486;53.144;18.134;2023-07-20T10:07:21;1.10;;;0.70;;
76597;SDS011;65486;53.144;18.134;2023-07-20T10:12:29;2.40;;;0.60;;
76597;SDS011;65486;53.144;18.134;2023-07-20T10:15:14;1.60;;;0.50;;
76597;SDS011;65486;53.144;18.134;2023-07-20T10:17:54;1.50;;;0.70;;
76597;SDS011;65486;53.144;18.134;2023-07-20T10:20:48;1.90;;;0.60;;
76597;SDS011;65486;53.144;18.134;2023-07-20T10:23:21;2.00;;;0.60;;
76597;SDS011;65486;53.144;18.134;2023-07-20T10:25:51;1.70;;;0.60;;
76597;SDS011;65486;53.144;18.134;2023-07-20T10:28:19;1.30;;;0.90;;
76597;SDS011;65486;53.144;18.134;2023-07-20T10:30:47;2.90;;;0.90;;
76597;SDS011;65486;53.144;18.134;2023-07-20T10:33:16;3.40;;;0.70;;
76597;SDS011;65486;53.144;18.134;2023-07-20T10:35:50;3.30;;;0.60;;
76597;SDS011;65486;53.144;18.134;2023-07-20T10:41:35;2.40;;;0.60;;
76597;SDS011;65486;53.144;18.134;2023-07-20T10:44:08;2.40;;;0.70;;
76597;SDS011;65486;53.144;18.134;2023-07-20T10:49:08;3.20;;;0.50;;
76597;SDS011;65486;53.144;18.134;2023-07-20T10:51:46;2.10;;;0.70;;
76597;SDS011;65486;53.144;18.134;2023-07-20T10:56:49;0.90;;;0.60;;
76597;SDS011;65486;53.144;18.134;2023-07-20T10:59:35;2.30;;;0.60;;
76597;SDS011;65486;53.144;18.134;2023-07-20T11:02:09;2.80;;;0.70;;
76597;SDS011;65486;53.144;18.134;2023-07-20T11:04:46;2.10;;;0.70;;
76597;SDS011;65486;53.144;18.134;2023-07-20T11:07:43;2.10;;;0.50;;
76597;SDS011;65486;53.144;18.134;2023-07-20T11:10:13;2.30;;;0.50;;
76597;SDS011;65486;53.144;18.134;2023-07-20T11:16:03;1.20;;;0.50;;
76597;SDS011;65486;53.144;18.134;2023-07-20T11:18:33;6.70;;;0.80;;
76597;SDS011;65486;53.144;18.134;2023-07-20T11:21:07;1.10;;;0.70;;
76597;SDS011;65486;53.144;18.134;2023-07-20T11:23:47;0.90;;;0.70;;
76597;SDS011;65486;53.144;18.134;2023-07-20T11:26:15;2.70;;;0.60;;
76597;SDS011;65486;53.144;18.134;2023-07-20T11:28:43;2.20;;;0.50;;
76597;SDS011;65486;53.144;18.134;2023-07-20T11:31:13;2.50;;;0.80;;
76597;SDS011;65486;53.144;18.134;2023-07-20T11:33:44;2.10;;;0.60;;
76597;SDS011;65486;53.144;18.134;2023-07-20T11:36:23;2.60;;;1.00;;
76597;SDS011;65486;53.144;18.134;2023-07-20T11:38:50;1.80;;;0.70;;
76597;SDS011;65486;53.144;18.134;2023-07-20T11:41:18;2.00;;;0.50;;
76597;SDS011;65486;53.144;18.134;2023-07-20T11:43:45;2.10;;;0.80;;
76597;SDS011;65486;53.144;18.134;2023-07-20T11:46:14;1.60;;;0.70;;
76597;SDS011;65486;53.144;18.134;2023-07-20T11:48:42;1.50;;;1.10;;
76597;SDS011;65486;53.144;18.134;2023-07-20T11:51:13;5.00;;;1.20;;
76597;SDS011;65486;53.144;18.134;2023-07-20T11:53:44;2.40;;;0.70;;
76597;SDS011;65486;53.144;18.134;2023-07-20T11:56:17;2.00;;;0.70;;
76597;SDS011;65486;53.144;18.134;2023-07-20T11:58:45;2.40;;;1.00;;
76597;SDS011;65486;53.144;18.134;2023-07-20T12:01:14;5.00;;;1.40;;
76597;SDS011;65486;53.144;18.134;2023-07-20T12:03:42;4.40;;;1.20;;
76597;SDS011;65486;53.144;18.134;2023-07-20T12:06:12;6.10;;;1.20;;
76597;SDS011;65486;53.144;18.134;2023-07-20T12:08:44;4.10;;;1.00;;
76597;SDS011;65486;53.144;18.134;2023-07-20T12:11:13;4.10;;;1.00;;
76597;SDS011;65486;53.144;18.134;2023-07-20T12:13:57;4.20;;;1.00;;
76597;SDS011;65486;53.144;18.134;2023-07-20T12:16:26;2.80;;;0.80;;
76597;SDS011;65486;53.144;18.134;2023-07-20T12:19:01;5.30;;;0.80;;
76597;SDS011;65486;53.144;18.134;2023-07-20T12:21:30;4.20;;;1.10;;
76597;SDS011;65486;53.144;18.134;2023-07-20T12:23:58;1.50;;;0.90;;
76597;SDS011;65486;53.144;18.134;2023-07-20T12:26:26;3.30;;;1.00;;
76597;SDS011;65486;53.144;18.134;2023-07-20T12:28:55;1.30;;;1.00;;
76597;SDS011;65486;53.144;18.134;2023-07-20T12:31:33;3.80;;;1.00;;
76597;SDS011;65486;53.144;18.134;2023-07-20T12:34:04;1.90;;;1.10;;
76597;SDS011;65486;53.144;18.134;2023-07-20T12:36:34;2.30;;;1.20;;
76597;SDS011;65486;53.144;18.134;2023-07-20T12:39:02;2.40;;;1.00;;
76597;SDS011;65486;53.144;18.134;2023-07-20T12:41:30;1.90;;;0.60;;
76597;SDS011;65486;53.144;18.134;2023-07-20T12:43:59;3.60;;;0.90;;
76597;SDS011;65486;53.144;18.134;2023-07-20T12:46:27;3.00;;;0.80;;
76597;SDS011;65486;53.144;18.134;2023-07-20T12:48:55;2.60;;;1.00;;
76597;SDS011;65486;53.144;18.134;2023-07-20T12:51:24;3.60;;;1.00;;
76597;SDS011;65486;53.144;18.134;2023-07-20T12:53:51;3.80;;;1.20;;
76597;SDS011;65486;53.144;18.134;2023-07-20T12:56:18;1.80;;;0.80;;
76597;SDS011;65486;53.144;18.134;2023-07-20T12:58:45;1.30;;;0.60;;
76597;SDS011;65486;53.144;18.134;2023-07-20T13:01:14;1.70;;;0.70;;
76597;SDS011;65486;53.144;18.134;2023-07-20T13:03:42;3.60;;;0.80;;
76597;SDS011;65486;53.144;18.134;2023-07-20T13:06:12;1.70;;;0.80;;
76597;SDS011;65486;53.144;18.134;2023-07-20T13:08:39;1.80;;;1.00;;
76597;SDS011;65486;53.144;18.134;2023-07-20T13:11:06;1.30;;;0.70;;
76597;SDS011;65486;53.144;18.134;2023-07-20T13:13:34;2.60;;;1.10;;
76597;SDS011;65486;53.144;18.134;2023-07-20T13:16:02;4.60;;;1.00;;
76597;SDS011;65486;53.144;18.134;2023-07-20T13:18:30;3.40;;;1.00;;
76597;SDS011;65486;53.144;18.134;2023-07-20T13:20:57;4.70;;;0.90;;
76597;SDS011;65486;53.144;18.134;2023-07-20T13:23:24;1.70;;;1.10;;
76597;SDS011;65486;53.144;18.134;2023-07-20T13:25:51;1.60;;;1.10;;
76597;SDS011;65486;53.144;18.134;2023-07-20T13:28:18;5.20;;;1.00;;
76597;SDS011;65486;53.144;18.134;2023-07-20T13:30:45;1.60;;;0.70;;
76597;SDS011;65486;53.144;18.134;2023-07-20T13:33:16;1.20;;;0.80;;
76597;SDS011;65486;53.144;18.134;2023-07-20T13:35:42;2.10;;;0.70;;
76597;SDS011;65486;53.144;18.134;2023-07-20T13:38:11;2.40;;;0.90;;
76597;SDS011;65486;53.144;18.134;2023-07-20T13:40:38;3.10;;;0.70;;
76597;SDS011;65486;53.144;18.134;2023-07-20T13:43:05;5.80;;;1.10;;
76597;SDS011;65486;53.144;18.134;2023-07-20T13:45:32;1.50;;;0.60;;
76597;SDS011;65486;53.144;18.134;2023-07-20T13:48:05;1.50;;;0.80;;
76597;SDS011;65486;53.144;18.134;2023-07-20T13:50:36;1.20;;;0.80;;
76597;SDS011;65486;53.144;18.134;2023-07-20T13:53:03;1.70;;;0.90;;
76597;SDS011;65486;53.144;18.134;2023-07-20T13:55:33;1.20;;;0.80;;
76597;SDS011;65486;53.144;18.134;2023-07-20T13:58:02;1.20;;;0.90;;
76597;SDS011;65486;53.144;18.134;2023-07-20T14:00:31;1.40;;;0.90;;
76597;SDS011;65486;53.144;18.134;2023-07-20T14:02:59;1.60;;;0.80;;
76597;SDS011;65486;53.144;18.134;2023-07-20T14:05:30;1.00;;;0.60;;
76597;SDS011;65486;53.144;18.134;2023-07-20T14:07:58;0.90;;;0.70;;
76597;SDS011;65486;53.144;18.134;2023-07-20T14:10:26;1.40;;;0.70;;
76597;SDS011;65486;53.144;18.134;2023-07-20T14:12:54;2.00;;;0.80;;
76597;SDS011;65486;53.144;18.134;2023-07-20T14:15:29;2.10;;;0.80;;
76597;SDS011;65486;53.144;18.134;2023-07-20T14:17:57;2.10;;;0.70;;
76597;SDS011;65486;53.144;18.134;2023-07-20T14:20:25;1.00;;;0.60;;
76597;SDS011;65486;53.144;18.134;2023-07-20T14:22:52;2.30;;;0.90;;
76597;SDS011;65486;53.144;18.134;2023-07-20T14:25:20;1.00;;;0.60;;
76597;SDS011;65486;53.144;18.134;2023-07-20T14:27:46;1.60;;;0.90;;
76597;SDS011;65486;53.144;18.134;2023-07-20T14:30:13;3.00;;;1.20;;
76597;SDS011;65486;53.144;18.134;2023-07-20T14:32:40;1.20;;;0.80;;
76597;SDS011;65486;53.144;18.134;2023-07-20T14:35:08;3.70;;;0.90;;
76597;SDS011;65486;53.144;18.134;2023-07-20T14:37:35;1.00;;;0.90;;
76597;SDS011;65486;53.144;18.134;2023-07-20T14:40:03;1.20;;;0.80;;
76597;SDS011;65486;53.144;18.134;2023-07-20T14:42:31;1.00;;;0.80;;
76597;SDS011;65486;53.144;18.134;2023-07-20T14:44:59;1.00;;;0.70;;
76597;SDS011;65486;53.144;18.134;2023-07-20T14:47:26;1.40;;;0.70;;
76597;SDS011;65486;53.144;18.134;2023-07-20T14:49:58;1.20;;;0.60;;
76597;SDS011;65486;53.144;18.134;2023-07-20T14:52:25;1.10;;;0.40;;
76597;SDS011;65486;53.144;18.134;2023-07-20T14:54:52;2.40;;;0.80;;
76597;SDS011;65486;53.144;18.134;2023-07-20T14:57:23;1.10;;;0.80;;
76597;SDS011;65486;53.144;18.134;2023-07-20T14:59:50;2.50;;;0.50;;
76597;SDS011;65486;53.144;18.134;2023-07-20T15:02:22;2.10;;;0.80;;
76597;SDS011;65486;53.144;18.134;2023-07-20T15:04:50;1.20;;;0.70;;
76597;SDS011;65486;53.144;18.134;2023-07-20T15:07:20;1.30;;;0.60;;
76597;SDS011;65486;53.144;18.134;2023-07-20T15:09:49;1.00;;;0.60;;